createdAt,value
2019-05-11T00:03:48.550Z,100075.10
2019-05-11T00:08:52.062Z,100067.95
2019-05-11T00:13:54.141Z,100050.91
2019-05-11T00:18:56.357Z,100038.73
2019-05-11T00:23:58.647Z,100037.86
2019-05-11T00:29:00.751Z,100046.28
2019-05-11T00:34:03.021Z,100037.61
2019-05-11T00:39:06.441Z,100030.41
2019-05-11T00:44:08.739Z,100024.67
2019-05-11T00:49:10.763Z,100020.56
2019-05-11T00:54:14.728Z,100009.27
2019-05-11T00:59:21.702Z,100012.17
2019-05-11T01:04:20.816Z,100015.50
2019-05-11T01:09:23.013Z,100015.50
2019-05-11T01:14:25.308Z,100012.11
2019-05-11T01:19:27.392Z,100012.11
2019-05-11T01:24:29.534Z,100012.30
2019-05-11T01:29:31.563Z,100007.08
2019-05-11T01:34:33.739Z,99998.82
2019-05-11T01:39:36.289Z,99999.13
2019-05-11T01:44:38.332Z,99976.91
2019-05-11T01:49:40.370Z,99955.16
2019-05-11T01:54:42.358Z,99958.52
2019-05-11T01:59:44.498Z,99952.46
2019-05-11T02:04:50.751Z,99952.89
2019-05-11T02:09:52.977Z,99957.84
2019-05-11T02:14:55.001Z,99961.03
2019-05-11T02:19:57.117Z,99961.03
2019-05-11T02:24:59.237Z,99966.20
2019-05-11T02:30:01.649Z,99976.45
2019-05-11T02:35:04.081Z,99969.84
2019-05-11T02:40:08.719Z,99969.84
2019-05-11T02:45:11.548Z,99952.36
2019-05-11T02:50:13.873Z,99943.95
2019-05-11T02:55:16.107Z,99942.45
2019-05-11T03:00:23.032Z,99934.02
2019-05-11T03:05:25.075Z,99938.77
2019-05-11T03:10:27.180Z,99936.08
2019-05-11T03:15:29.391Z,99937.58
2019-05-11T03:20:31.532Z,99939.48
2019-05-11T03:25:33.716Z,99939.48
2019-05-11T03:30:35.918Z,99923.09
2019-05-11T03:35:37.938Z,99923.09
2019-05-11T03:40:40.359Z,99919.16
2019-05-11T03:45:42.467Z,99908.61
2019-05-11T03:50:44.569Z,99920.56
2019-05-11T03:55:46.669Z,99913.95
2019-05-11T04:00:48.749Z,99907.16
2019-05-11T04:05:50.991Z,99910.73
2019-05-11T04:10:53.122Z,99910.73
2019-05-11T04:15:55.091Z,99916.89
2019-05-11T04:20:58.473Z,99908.30
2019-05-11T04:26:00.547Z,99914.46
2019-05-11T04:31:02.659Z,99911.86
2019-05-11T04:36:04.698Z,99915.55
2019-05-11T04:41:06.981Z,99917.52
2019-05-11T04:46:10.751Z,99923.36
2019-05-11T04:51:14.028Z,99928.52
2019-05-11T04:56:16.273Z,99926.86
2019-05-11T05:01:18.278Z,99920.19
2019-05-11T05:06:23.975Z,99928.36
2019-05-11T05:11:24.456Z,99922.45
2019-05-11T05:16:26.446Z,99923.80
2019-05-11T05:21:28.436Z,99910.75
2019-05-11T05:26:30.581Z,99913.50
2019-05-11T05:31:32.688Z,99922.70
2019-05-11T05:36:34.717Z,99917.59
2019-05-11T05:41:36.901Z,99903.67
2019-05-11T05:46:39.116Z,99910.20
2019-05-11T05:51:41.223Z,99891.52
2019-05-11T05:56:43.395Z,99902.73
2019-05-11T06:01:45.366Z,99903.21
2019-05-11T06:06:47.395Z,99895.14
2019-05-11T06:11:49.408Z,99903.47
2019-05-11T06:16:51.970Z,99904.77
2019-05-11T06:21:54.158Z,99911.51
2019-05-11T06:26:56.211Z,99911.52
2019-05-11T06:31:58.327Z,99907.16
2019-05-11T06:37:00.527Z,99904.47
2019-05-11T06:42:04.557Z,99909.48
2019-05-11T06:47:06.760Z,99911.28
2019-05-11T06:52:08.858Z,99913.22
2019-05-11T06:57:10.895Z,99897.92
2019-05-11T07:02:12.988Z,99898.73
2019-05-11T07:07:15.252Z,99900.45
2019-05-11T07:12:17.636Z,99893.75
2019-05-11T07:17:19.695Z,99884.64
2019-05-11T07:22:21.670Z,99880.12
2019-05-11T07:27:23.761Z,99883.81
2019-05-11T07:32:26.286Z,99876.08
2019-05-11T07:37:29.320Z,99869.00
2019-05-11T07:48:27.835Z,99864.67
2019-05-11T07:53:30.014Z,99862.05
2019-05-11T07:58:31.993Z,99862.05
2019-05-11T08:03:34.078Z,99858.41
2019-05-11T08:08:38.499Z,99853.12
2019-05-11T08:13:40.171Z,99858.66
2019-05-11T08:18:42.391Z,99864.32
2019-05-11T08:23:44.413Z,99861.11
2019-05-11T08:28:48.645Z,99866.50
2019-05-11T08:33:50.453Z,99854.80
2019-05-11T08:38:52.598Z,99862.43
2019-05-11T08:43:58.015Z,99865.39
2019-05-11T08:49:00.008Z,99858.08
2019-05-11T08:54:02.132Z,99858.08
2019-05-11T08:59:08.174Z,99862.39
2019-05-11T09:04:10.543Z,99860.52
2019-05-11T09:09:25.820Z,99861.28
2019-05-11T09:14:28.532Z,99861.73
2019-05-11T09:19:30.781Z,99864.77
2019-05-11T09:24:32.896Z,99862.75
2019-05-11T09:29:35.015Z,99867.97
2019-05-11T09:34:37.823Z,99860.19
2019-05-11T09:39:40.264Z,99874.83
2019-05-11T09:44:44.440Z,99867.17
2019-05-11T09:49:50.111Z,99883.26
2019-05-11T09:54:50.558Z,99877.77
2019-05-11T09:59:53.648Z,99884.95
2019-05-11T10:04:57.833Z,99888.31
2019-05-11T10:10:00.769Z,99888.91
2019-05-11T10:15:03.386Z,99883.39
2019-05-11T10:20:09.311Z,99870.68
2019-05-11T10:25:11.287Z,99874.55
2019-05-11T10:30:15.324Z,99878.91
2019-05-11T10:35:18.351Z,99881.21
2019-05-11T10:40:20.976Z,99882.14
2019-05-11T10:45:23.091Z,99893.45
2019-05-11T10:50:25.218Z,99885.05
2019-05-11T10:55:28.023Z,99880.56
2019-05-11T11:00:30.585Z,99872.23
2019-05-11T11:05:32.858Z,99865.36
2019-05-11T11:10:35.180Z,99845.16
2019-05-11T11:15:38.071Z,99835.33
2019-05-11T11:20:40.343Z,99857.69
2019-05-11T11:25:42.543Z,99855.06
2019-05-11T11:30:44.643Z,99859.66
2019-05-11T11:35:47.728Z,99853.54
2019-05-11T11:40:50.031Z,99856.55
2019-05-11T11:45:52.027Z,99839.92
2019-05-11T11:52:33.187Z,99840.00
2019-05-11T11:57:37.806Z,99838.89
2019-05-11T12:02:39.614Z,99838.52
2019-05-11T12:07:41.747Z,99837.67
2019-05-11T12:12:43.822Z,99834.32
2019-05-11T12:17:48.078Z,99854.41
2019-05-11T12:22:50.064Z,99854.41
2019-05-11T12:27:53.507Z,99858.55
2019-05-11T12:32:57.572Z,99861.45
2019-05-11T12:38:08.612Z,99861.45
2019-05-11T12:43:11.043Z,99861.48
2019-05-11T12:48:14.349Z,99867.77
2019-05-11T12:53:18.620Z,99875.02
2019-05-11T12:58:20.909Z,99884.95
2019-05-11T13:03:23.051Z,99884.95
2019-05-11T13:08:25.049Z,99884.72
2019-05-11T13:13:28.640Z,99892.86
2019-05-11T13:18:35.785Z,99908.16
2019-05-11T13:23:38.535Z,99908.16
2019-05-11T13:28:40.550Z,99903.31
2019-05-11T13:33:42.545Z,99905.20
2019-05-11T13:38:44.534Z,99905.20
2019-05-11T13:43:48.587Z,99898.02
2019-05-11T13:48:50.918Z,99896.06
2019-05-11T13:53:54.256Z,99905.75
2019-05-11T13:59:06.531Z,99894.37
2019-05-11T14:04:28.243Z,99920.09
2019-05-11T14:09:30.338Z,99923.41
2019-05-11T14:14:33.197Z,99914.85
2019-05-11T14:19:38.275Z,99923.04
2019-05-11T14:24:39.601Z,99923.04
2019-05-11T14:29:41.606Z,99923.66
2019-05-11T14:34:43.720Z,99945.13
2019-05-11T14:39:48.185Z,99955.11
2019-05-11T14:44:50.455Z,99969.06
2019-05-11T14:49:52.424Z,99960.02
2019-05-11T14:54:55.061Z,99966.28
2019-05-11T14:59:58.611Z,99972.13
2019-05-11T15:05:01.703Z,99975.02
2019-05-11T15:10:11.395Z,99973.88
2019-05-11T15:15:18.639Z,100004.14
2019-05-11T15:20:20.910Z,100007.19
2019-05-11T15:25:22.937Z,100028.69
2019-05-11T15:30:25.243Z,100038.93
2019-05-11T15:35:28.419Z,100045.55
2019-05-11T15:40:30.921Z,100074.30
2019-05-11T15:45:33.028Z,100059.05
2019-05-11T15:50:35.022Z,100061.94
2019-05-11T15:55:40.370Z,100064.12
2019-05-11T16:00:41.139Z,100061.61
2019-05-11T16:05:43.348Z,100086.95
2019-05-11T16:10:48.930Z,100085.44
2019-05-11T16:15:51.019Z,100060.09
2019-05-11T16:20:53.078Z,100063.63
2019-05-11T16:25:55.181Z,100090.13
2019-05-11T16:30:58.376Z,100126.58
2019-05-11T16:36:00.826Z,100153.94
2019-05-11T16:41:03.320Z,100172.75
2019-05-11T16:46:08.471Z,100169.91
2019-05-11T16:51:10.405Z,100172.93
2019-05-11T16:56:12.425Z,100187.52
2019-05-11T17:01:14.449Z,100186.68
2019-05-11T17:06:16.465Z,100215.39
2019-05-11T17:11:19.744Z,100217.21
2019-05-11T17:16:21.900Z,100221.75
2019-05-11T17:21:23.895Z,100238.88
2019-05-11T17:26:27.883Z,100266.24
2019-05-11T17:31:30.036Z,100270.09
2019-05-11T17:36:32.042Z,100294.59
2019-05-11T17:41:34.246Z,100291.04
2019-05-11T17:46:38.517Z,100302.43
2019-05-11T17:51:40.656Z,100310.58
2019-05-11T17:56:42.936Z,100315.62
2019-05-11T18:01:46.934Z,100326.80
2019-05-11T18:06:49.036Z,100334.45
2019-05-11T18:11:51.147Z,100352.00
2019-05-11T18:16:53.441Z,100372.91
2019-05-11T18:21:57.729Z,100392.92
2019-05-11T18:27:00.549Z,100396.00
2019-05-11T18:32:02.776Z,100405.14
2019-05-11T18:37:08.579Z,100427.19
2019-05-11T18:42:10.059Z,100439.86
2019-05-11T18:47:12.247Z,100445.62
2019-05-11T18:52:14.432Z,100462.03
2019-05-11T18:57:18.613Z,100463.03
2019-05-11T19:02:20.584Z,100473.38
2019-05-11T19:07:23.180Z,100477.89
2019-05-11T19:12:27.662Z,100490.58
2019-05-11T19:17:29.443Z,100499.74
2019-05-11T19:22:31.483Z,100511.45
2019-05-11T19:27:33.585Z,100528.06
2019-05-11T19:32:38.067Z,100524.38
2019-05-11T19:37:39.898Z,100519.86
2019-05-11T19:42:54.805Z,100526.13
2019-05-11T19:47:57.853Z,100538.69
2019-05-11T19:53:00.402Z,100555.97
2019-05-11T19:58:02.834Z,100572.98
2019-05-11T20:03:04.875Z,100587.80
2019-05-11T20:08:07.922Z,100588.30
2019-05-11T20:13:10.158Z,100588.30
2019-05-11T20:18:12.325Z,100603.19
2019-05-11T20:23:14.345Z,100608.64
2019-05-11T20:28:18.306Z,100606.52
2019-05-11T20:33:20.483Z,100628.57
2019-05-11T20:38:22.570Z,100648.81
2019-05-11T20:43:24.693Z,100668.27
2019-05-11T20:48:27.706Z,100675.52
2019-05-11T20:53:29.980Z,100675.02
2019-05-11T20:58:51.873Z,100679.66
2019-05-11T21:03:54.033Z,100692.17
2019-05-11T21:08:56.018Z,100699.08
2019-05-11T21:13:58.154Z,100695.06
2019-05-11T21:19:00.214Z,100697.36
2019-05-11T21:24:02.305Z,100704.91
2019-05-11T21:29:04.545Z,100709.70
2019-05-11T21:34:08.180Z,100719.30
2019-05-11T21:39:10.566Z,100722.31
2019-05-11T21:44:12.799Z,100728.67
2019-05-11T21:49:14.786Z,100743.45
2019-05-11T21:54:16.899Z,100750.70
2019-05-11T22:09:12.345Z,100755.50
2019-05-11T22:24:49.505Z,100783.80
2019-05-11T22:29:51.503Z,100782.48
2019-05-11T22:34:53.571Z,100791.81
2019-05-11T22:39:59.681Z,100804.78
2019-05-11T22:45:01.893Z,100807.25
2019-05-11T22:50:05.017Z,100819.45
2019-05-11T22:55:08.887Z,100833.01
2019-05-11T23:00:12.560Z,100840.83
2019-05-11T23:05:16.783Z,100840.73
2019-05-11T23:10:19.022Z,100844.47
2019-05-11T23:15:21.034Z,100856.06
2019-05-11T23:20:23.262Z,100863.01
2019-05-11T23:25:25.364Z,100872.00
2019-05-11T23:30:29.387Z,100880.63
2019-05-11T23:35:31.675Z,100879.30
2019-05-11T23:40:33.891Z,100888.80
2019-05-11T23:45:38.206Z,100894.15
2019-05-11T23:50:40.205Z,100893.41
2019-05-11T23:55:42.462Z,100903.84
